createdAt,value
2022-08-19T00:02:11.900Z,12.13
2022-08-19T00:05:00.512Z,12.57
2022-08-19T00:07:49.838Z,11.82
2022-08-19T00:10:38.386Z,12.02
2022-08-19T00:13:30.084Z,12.80
2022-08-19T00:16:20.323Z,12.30
2022-08-19T00:19:16.886Z,12.07
2022-08-19T00:22:06.464Z,12.10
2022-08-19T00:24:55.116Z,12.13
2022-08-19T00:27:43.696Z,12.25
2022-08-19T00:30:32.450Z,12.02
2022-08-19T00:33:21.095Z,12.75
2022-08-19T00:36:12.530Z,12.50
2022-08-19T00:39:02.614Z,12.48
2022-08-19T00:41:52.909Z,12.23
2022-08-19T00:44:41.357Z,12.52
2022-08-19T00:47:29.924Z,12.40
2022-08-19T00:50:21.948Z,13.23
2022-08-19T00:53:12.957Z,12.40
2022-08-19T00:56:03.440Z,12.38
2022-08-19T00:58:52.496Z,13.02
2022-08-19T01:01:44.349Z,12.77
2022-08-19T01:04:33.447Z,12.25
2022-08-19T01:07:22.166Z,12.88
2022-08-19T01:10:16.699Z,12.98
2022-08-19T01:13:06.480Z,12.65
2022-08-19T01:15:59.855Z,12.35
2022-08-19T01:18:49.127Z,12.88
2022-08-19T01:21:43.245Z,12.50
2022-08-19T01:24:33.073Z,13.27
2022-08-19T01:27:22.046Z,13.18
2022-08-19T01:30:13.150Z,13.30
2022-08-19T01:33:01.911Z,14.25
2022-08-19T01:35:52.548Z,13.02
2022-08-19T01:38:44.724Z,13.95
2022-08-19T01:41:35.082Z,13.77
2022-08-19T01:44:25.024Z,13.32
2022-08-19T01:47:17.162Z,13.75
2022-08-19T01:50:07.604Z,13.88
2022-08-19T01:53:03.433Z,13.90
2022-08-19T01:55:56.498Z,13.73
2022-08-19T01:58:50.424Z,13.95
2022-08-19T02:01:39.050Z,13.50
2022-08-19T02:04:28.232Z,13.77
2022-08-19T02:07:16.780Z,13.38
2022-08-19T02:10:11.315Z,14.40
2022-08-19T02:13:01.390Z,13.85
2022-08-19T02:15:51.301Z,14.05
2022-08-19T02:18:40.122Z,13.60
2022-08-19T02:21:29.760Z,14.13
2022-08-19T02:24:18.561Z,12.80
2022-08-19T02:27:07.426Z,13.60
2022-08-19T02:29:56.187Z,13.07
2022-08-19T02:32:46.094Z,14.10
2022-08-19T02:35:34.598Z,13.52
2022-08-19T02:38:28.816Z,13.85
2022-08-19T02:41:19.818Z,13.43
2022-08-19T02:44:29.623Z,14.35
2022-08-19T02:47:19.780Z,14.85
2022-08-19T02:50:10.587Z,13.10
2022-08-19T02:52:59.162Z,13.15
2022-08-19T02:55:48.984Z,13.68
2022-08-19T02:58:37.574Z,14.07
2022-08-19T03:01:29.360Z,14.05
2022-08-19T03:04:18.440Z,13.93
2022-08-19T03:07:11.155Z,13.48
2022-08-19T03:10:00.424Z,14.18
2022-08-19T03:12:49.352Z,13.85
2022-08-19T03:15:42.315Z,13.40
2022-08-19T03:18:30.838Z,13.50
2022-08-19T03:21:20.331Z,14.50
2022-08-19T03:24:11.022Z,15.30
2022-08-19T03:27:00.036Z,15.30
2022-08-19T03:29:49.048Z,14.77
2022-08-19T03:32:52.465Z,14.43
2022-08-19T03:35:46.198Z,14.60
2022-08-19T03:38:34.726Z,13.43
2022-08-19T03:41:27.587Z,14.20
2022-08-19T03:44:33.916Z,14.57
2022-08-19T03:47:22.502Z,14.30
2022-08-19T03:50:11.999Z,14.25
2022-08-19T03:53:02.142Z,14.20
2022-08-19T03:55:50.580Z,14.52
2022-08-19T03:58:45.262Z,14.23
2022-08-19T04:01:37.190Z,14.60
2022-08-19T04:04:29.057Z,14.90
2022-08-19T04:07:19.231Z,15.10
2022-08-19T04:10:10.660Z,14.85
2022-08-19T04:12:59.228Z,15.00
2022-08-19T04:15:49.260Z,15.27
2022-08-19T04:18:38.398Z,14.48
2022-08-19T04:21:29.153Z,15.35
2022-08-19T04:24:18.106Z,15.35
2022-08-19T04:27:07.958Z,16.05
2022-08-19T04:29:56.406Z,16.25
2022-08-19T04:32:46.340Z,15.82
2022-08-19T04:35:38.858Z,15.30
2022-08-19T04:38:27.364Z,15.38
2022-08-19T04:41:33.088Z,15.15
2022-08-19T04:44:22.117Z,15.80
2022-08-19T04:47:11.024Z,16.27
2022-08-19T04:50:01.481Z,16.33
2022-08-19T04:52:53.002Z,14.70
2022-08-19T04:55:43.471Z,14.73
2022-08-19T04:58:32.340Z,14.80
2022-08-19T05:01:24.115Z,15.27
2022-08-19T05:04:13.738Z,14.70
2022-08-19T05:07:03.788Z,13.95
2022-08-19T05:09:57.765Z,13.73
2022-08-19T05:12:47.633Z,13.55
2022-08-19T05:15:36.882Z,12.13
2022-08-19T05:18:43.052Z,12.32
2022-08-19T05:21:49.746Z,13.00
2022-08-19T05:24:56.420Z,12.77
2022-08-19T05:27:49.397Z,12.48
2022-08-19T05:30:47.235Z,12.88
2022-08-19T05:33:36.473Z,12.80
2022-08-19T05:36:25.035Z,11.75
2022-08-19T05:39:17.507Z,13.02
2022-08-19T05:42:09.974Z,12.63
2022-08-19T05:44:58.536Z,12.73
2022-08-19T05:47:47.380Z,12.07
2022-08-19T05:50:38.548Z,12.70
2022-08-19T05:53:27.335Z,11.13
2022-08-19T05:56:18.019Z,12.48
2022-08-19T05:59:11.661Z,11.27
2022-08-19T06:02:01.705Z,12.05
2022-08-19T06:04:50.609Z,12.20
2022-08-19T06:07:39.794Z,11.45
2022-08-19T06:10:28.401Z,12.45
2022-08-19T06:13:16.850Z,12.07
2022-08-19T06:16:06.970Z,11.88
2022-08-19T06:18:57.855Z,12.82
2022-08-19T06:21:48.789Z,13.40
2022-08-19T06:24:37.365Z,12.35
2022-08-19T06:27:25.918Z,12.57
2022-08-19T06:30:15.254Z,12.13
2022-08-19T06:33:05.123Z,13.02
2022-08-19T06:35:53.811Z,13.38
2022-08-19T06:38:42.398Z,12.70
2022-08-19T06:41:37.419Z,12.45
2022-08-19T06:44:42.803Z,12.20
2022-08-19T06:47:33.531Z,12.43
2022-08-19T06:50:25.036Z,12.82
2022-08-19T06:53:14.083Z,13.65
2022-08-19T06:56:03.741Z,12.30
2022-08-19T06:58:53.940Z,12.32
2022-08-19T07:01:48.095Z,11.50
2022-08-19T07:04:39.414Z,12.15
2022-08-19T07:07:33.002Z,11.13
2022-08-19T07:10:22.335Z,11.68
2022-08-19T07:13:11.024Z,12.25
2022-08-19T07:15:59.472Z,11.75
2022-08-19T07:18:54.270Z,12.25
2022-08-19T07:21:43.632Z,11.77
2022-08-19T07:24:34.079Z,10.80
2022-08-19T07:27:24.819Z,11.63
2022-08-19T07:30:14.821Z,11.55
2022-08-19T07:33:03.701Z,11.15
2022-08-19T07:35:52.284Z,11.30
2022-08-19T07:38:42.695Z,10.73
2022-08-19T07:41:38.125Z,11.68
2022-08-19T07:44:27.336Z,11.07
2022-08-19T07:47:50.159Z,10.73
2022-08-19T07:50:27.113Z,9.85
2022-08-19T07:53:19.861Z,10.63
2022-08-19T07:56:08.711Z,10.20
2022-08-19T07:58:58.837Z,10.38
2022-08-19T08:01:47.397Z,9.38
2022-08-19T08:04:54.080Z,10.10
2022-08-19T08:08:00.363Z,10.60
2022-08-19T08:10:53.082Z,10.25
2022-08-19T08:13:45.561Z,10.32
2022-08-19T08:16:46.984Z,10.48
2022-08-19T08:19:37.121Z,10.25
2022-08-19T08:22:43.635Z,10.63
2022-08-19T08:25:34.384Z,11.02
2022-08-19T08:28:24.228Z,10.93
2022-08-19T08:31:12.693Z,10.85
2022-08-19T08:34:02.683Z,10.63
2022-08-19T08:36:52.925Z,10.55
2022-08-19T08:39:41.522Z,10.32
2022-08-19T08:42:34.657Z,11.02
2022-08-19T08:45:24.625Z,10.93
2022-08-19T08:48:25.031Z,10.35
2022-08-19T08:51:20.246Z,11.15
2022-08-19T08:54:16.318Z,10.32
2022-08-19T08:57:09.657Z,11.00
2022-08-19T09:00:00.763Z,10.93
2022-08-19T09:02:50.338Z,11.27
2022-08-19T09:05:48.463Z,10.52
2022-08-19T09:08:45.367Z,11.18
2022-08-19T09:11:52.480Z,10.40
2022-08-19T09:14:51.793Z,10.10
2022-08-19T09:17:40.839Z,10.00
2022-08-19T09:20:29.788Z,9.32
2022-08-19T09:23:18.415Z,9.65
2022-08-19T09:26:18.757Z,8.95
2022-08-19T09:29:08.975Z,9.68
2022-08-19T09:31:57.559Z,8.95
2022-08-19T09:34:50.791Z,8.38
2022-08-19T09:37:40.466Z,8.77
2022-08-19T09:40:30.109Z,8.27
2022-08-19T09:43:33.104Z,8.88
2022-08-19T09:46:31.506Z,7.82
2022-08-19T09:49:22.714Z,8.18
2022-08-19T09:52:13.915Z,9.18
2022-08-19T09:55:07.368Z,8.18
2022-08-19T09:57:56.748Z,7.95
2022-08-19T10:00:51.608Z,8.82
2022-08-19T10:03:40.265Z,8.35
2022-08-19T10:06:38.166Z,8.68
2022-08-19T10:09:35.265Z,7.95
2022-08-19T10:12:24.087Z,8.20
2022-08-19T10:15:15.823Z,8.43
2022-08-19T10:18:05.903Z,8.18
2022-08-19T10:20:55.581Z,7.55
2022-08-19T10:23:46.836Z,8.20
2022-08-19T10:26:38.162Z,8.35
2022-08-19T10:29:32.672Z,7.82
2022-08-19T10:32:33.765Z,7.32
2022-08-19T10:35:26.095Z,7.78
2022-08-19T10:38:15.865Z,8.52
2022-08-19T10:41:12.188Z,8.52
2022-08-19T10:44:04.739Z,7.63
2022-08-19T10:46:53.327Z,7.60
2022-08-19T10:49:55.756Z,7.25
2022-08-19T10:52:50.911Z,8.18
2022-08-19T10:55:57.172Z,8.25
2022-08-19T10:58:45.895Z,7.63
2022-08-19T11:01:35.900Z,7.32
2022-08-19T11:04:28.843Z,7.13
2022-08-19T11:07:18.161Z,7.45
2022-08-19T11:10:13.096Z,7.03
2022-08-19T11:13:01.804Z,7.20
2022-08-19T11:15:57.701Z,7.53
2022-08-19T11:18:49.343Z,7.53
2022-08-19T11:21:40.078Z,7.25
2022-08-19T11:24:29.606Z,7.28
2022-08-19T11:27:19.629Z,8.02
2022-08-19T11:30:13.240Z,7.72
2022-08-19T11:33:03.525Z,8.20
2022-08-19T11:35:53.024Z,7.53
2022-08-19T11:38:41.838Z,7.65
2022-08-19T11:41:30.450Z,7.18
2022-08-19T11:44:20.402Z,6.90
2022-08-19T11:47:09.311Z,6.90
2022-08-19T11:49:58.334Z,6.70
2022-08-19T11:52:47.501Z,6.38
2022-08-19T11:55:43.291Z,6.90
2022-08-19T11:58:33.056Z,6.80
2022-08-19T12:01:24.586Z,6.90
2022-08-19T12:04:13.471Z,6.65
2022-08-19T12:07:02.924Z,7.30
2022-08-19T12:09:51.751Z,6.80
2022-08-19T12:12:43.556Z,6.90
2022-08-19T12:15:37.241Z,7.03
2022-08-19T12:18:27.225Z,6.97
2022-08-19T12:21:16.198Z,7.03
2022-08-19T12:24:07.006Z,6.80
2022-08-19T12:27:00.948Z,7.85
2022-08-19T12:29:51.713Z,7.30
2022-08-19T12:32:40.559Z,8.10
2022-08-19T12:35:31.581Z,7.72
2022-08-19T12:38:20.620Z,6.88
2022-08-19T12:41:13.542Z,7.25
2022-08-19T12:44:02.148Z,7.60
2022-08-19T12:46:53.786Z,7.47
2022-08-19T12:49:54.387Z,7.72
2022-08-19T12:52:46.113Z,7.95
2022-08-19T12:55:34.852Z,7.15
2022-08-19T12:58:27.211Z,7.68
2022-08-19T13:01:20.438Z,7.35
2022-08-19T13:04:11.582Z,7.18
2022-08-19T13:07:00.952Z,7.57
2022-08-19T13:09:53.692Z,7.20
2022-08-19T13:12:43.262Z,7.38
2022-08-19T13:15:35.306Z,7.28
2022-08-19T13:18:25.121Z,7.60
2022-08-19T13:21:14.265Z,6.85
2022-08-19T13:24:02.855Z,7.10
2022-08-19T13:26:52.729Z,7.50
2022-08-19T13:30:00.130Z,7.65
2022-08-19T13:33:06.175Z,7.03
2022-08-19T13:36:02.064Z,7.18
2022-08-19T13:38:50.578Z,7.18
2022-08-19T13:41:44.862Z,7.35
2022-08-19T13:44:35.910Z,7.28
2022-08-19T13:47:24.358Z,7.15
2022-08-19T13:50:14.588Z,6.82
2022-08-19T13:53:05.358Z,6.60
2022-08-19T13:55:54.729Z,7.18
2022-08-19T13:58:43.384Z,6.95
2022-08-19T14:01:33.384Z,7.00
2022-08-19T14:04:21.962Z,6.75
2022-08-19T14:07:10.644Z,6.60
2022-08-19T14:09:59.374Z,6.75
2022-08-19T14:12:48.910Z,6.90
2022-08-19T14:15:38.268Z,6.55
2022-08-19T14:18:28.554Z,6.28
2022-08-19T14:21:19.691Z,6.88
2022-08-19T14:24:08.514Z,6.70
2022-08-19T14:26:57.452Z,6.43
2022-08-19T14:29:46.661Z,6.75
2022-08-19T14:32:35.719Z,6.97
2022-08-19T14:35:26.247Z,6.97
2022-08-19T14:38:18.446Z,6.15
2022-08-19T14:41:20.371Z,6.30
2022-08-19T14:44:11.029Z,6.03
2022-08-19T14:46:59.531Z,6.13
2022-08-19T14:49:48.661Z,6.25
2022-08-19T14:52:40.567Z,5.68
2022-08-19T14:55:29.198Z,6.47
2022-08-19T14:58:29.086Z,6.25
2022-08-19T15:01:18.407Z,6.22
2022-08-19T15:04:07.007Z,6.38
2022-08-19T15:06:55.484Z,6.22
2022-08-19T15:09:45.373Z,5.97
2022-08-19T15:12:35.264Z,5.50
2022-08-19T15:15:23.914Z,6.00
2022-08-19T15:18:13.909Z,6.15
2022-08-19T15:21:02.910Z,6.20
2022-08-19T15:23:55.806Z,5.70
2022-08-19T15:26:45.825Z,5.70
2022-08-19T15:29:34.680Z,6.10
2022-08-19T15:32:24.209Z,6.10
2022-08-19T15:35:13.533Z,6.43
2022-08-19T15:38:02.366Z,5.63
2022-08-19T15:40:51.938Z,6.32
2022-08-19T15:43:43.987Z,6.30
2022-08-19T15:46:35.217Z,6.40
2022-08-19T15:49:23.716Z,6.22
2022-08-19T15:52:12.473Z,5.57
2022-08-19T15:55:01.787Z,6.53
2022-08-19T15:58:07.604Z,6.18
2022-08-19T16:01:27.706Z,6.97
2022-08-19T16:04:34.232Z,6.18
2022-08-19T16:07:23.513Z,6.20
2022-08-19T16:10:25.935Z,5.93
2022-08-19T16:13:16.288Z,6.15
2022-08-19T16:16:05.334Z,6.65
2022-08-19T16:18:55.241Z,6.05
2022-08-19T16:21:44.761Z,6.53
2022-08-19T16:24:33.786Z,6.47
2022-08-19T16:27:22.526Z,6.60
2022-08-19T16:30:11.926Z,7.45
2022-08-19T16:33:00.462Z,6.05
2022-08-19T16:35:56.052Z,6.07
2022-08-19T16:38:50.541Z,6.50
2022-08-19T16:41:40.023Z,6.10
2022-08-19T16:44:29.785Z,6.07
2022-08-19T16:47:19.147Z,6.03
2022-08-19T16:50:08.536Z,5.60
2022-08-19T16:52:58.976Z,5.93
2022-08-19T16:55:50.987Z,6.55
2022-08-19T16:58:39.667Z,6.28
2022-08-19T17:01:28.683Z,6.32
2022-08-19T17:04:17.185Z,5.93
2022-08-19T17:07:06.316Z,5.88
2022-08-19T17:09:56.436Z,6.05
2022-08-19T17:12:45.505Z,5.63
2022-08-19T17:15:34.068Z,6.20
2022-08-19T17:18:24.085Z,5.70
2022-08-19T17:21:13.568Z,5.85
2022-08-19T17:24:04.556Z,5.72
2022-08-19T17:26:54.811Z,5.97
2022-08-19T17:29:46.912Z,5.93
2022-08-19T17:32:35.739Z,5.97
2022-08-19T17:35:24.507Z,6.10
2022-08-19T17:38:16.541Z,6.15
2022-08-19T17:41:06.188Z,6.18
2022-08-19T17:43:56.266Z,6.25
2022-08-19T17:46:45.462Z,5.82
2022-08-19T17:49:34.230Z,6.22
2022-08-19T17:52:22.874Z,5.90
2022-08-19T17:55:11.881Z,5.78
2022-08-19T17:58:00.352Z,6.45
2022-08-19T18:00:53.227Z,6.18
2022-08-19T18:03:43.528Z,5.95
2022-08-19T18:06:32.099Z,6.38
2022-08-19T18:09:23.916Z,6.00
2022-08-19T18:12:13.684Z,6.05
2022-08-19T18:15:04.044Z,6.60
2022-08-19T18:17:55.578Z,6.00
2022-08-19T18:20:44.636Z,5.90
2022-08-19T18:23:44.598Z,6.43
2022-08-19T18:26:34.982Z,6.32
2022-08-19T18:29:23.415Z,6.47
2022-08-19T18:32:15.714Z,6.32
2022-08-19T18:35:11.312Z,6.75
2022-08-19T18:38:01.698Z,6.22
2022-08-19T18:41:07.734Z,6.90
2022-08-19T18:44:13.586Z,6.75
2022-08-19T18:47:19.504Z,7.30
2022-08-19T18:50:12.976Z,6.85
2022-08-19T18:52:59.533Z,6.00
2022-08-19T18:55:49.674Z,6.20
2022-08-19T18:58:39.307Z,6.35
2022-08-19T19:01:30.825Z,6.03
2022-08-19T19:04:21.456Z,6.68
2022-08-19T19:07:10.697Z,6.28
2022-08-19T19:10:01.556Z,6.38
2022-08-19T19:12:50.535Z,6.70
2022-08-19T19:15:42.997Z,6.55
2022-08-19T19:18:33.421Z,6.55
2022-08-19T19:21:23.294Z,6.22
2022-08-19T19:24:14.310Z,6.90
2022-08-19T19:27:07.070Z,6.80
2022-08-19T19:29:55.925Z,6.63
2022-08-19T19:32:44.642Z,6.55
2022-08-19T19:35:33.534Z,6.63
2022-08-19T19:38:22.085Z,6.47
2022-08-19T19:41:10.683Z,6.32
2022-08-19T19:44:30.174Z,6.22
2022-08-19T19:47:10.946Z,6.40
2022-08-19T19:50:15.982Z,6.53
2022-08-19T19:53:04.946Z,6.80
2022-08-19T19:55:55.015Z,6.25
2022-08-19T19:58:43.526Z,6.40
2022-08-19T20:01:33.632Z,6.53
2022-08-19T20:04:22.272Z,6.65
2022-08-19T20:07:10.929Z,6.50
2022-08-19T20:10:00.147Z,5.97
2022-08-19T20:12:49.040Z,7.20
2022-08-19T20:15:42.310Z,5.93
2022-08-19T20:18:32.707Z,6.20
2022-08-19T20:21:21.307Z,6.22
2022-08-19T20:24:10.353Z,6.55
2022-08-19T20:26:59.469Z,6.32
2022-08-19T20:29:48.576Z,6.47
2022-08-19T20:32:37.813Z,7.20
2022-08-19T20:35:28.082Z,5.60
2022-08-19T20:38:16.572Z,6.47
2022-08-19T20:41:05.953Z,5.82
2022-08-19T20:43:54.557Z,6.10
2022-08-19T20:46:43.102Z,6.40
2022-08-19T20:49:44.224Z,7.07
2022-08-19T20:52:34.209Z,6.97
2022-08-19T20:55:22.936Z,6.00
2022-08-19T20:58:13.655Z,5.70
2022-08-19T21:01:05.121Z,5.93
2022-08-19T21:03:53.755Z,5.68
2022-08-19T21:06:45.280Z,6.18
2022-08-19T21:09:35.886Z,5.70
2022-08-19T21:12:26.017Z,6.25
2022-08-19T21:15:14.738Z,5.95
2022-08-19T21:18:03.209Z,5.72
2022-08-19T21:20:51.985Z,5.55
2022-08-19T21:23:41.224Z,5.88
2022-08-19T21:26:31.079Z,5.75
2022-08-19T21:29:23.396Z,6.10
2022-08-19T21:32:14.146Z,5.97
2022-08-19T21:35:03.310Z,5.57
2022-08-19T21:37:52.494Z,6.07
2022-08-19T21:40:44.413Z,5.97
2022-08-19T21:43:34.959Z,5.65
2022-08-19T21:46:23.587Z,5.75
2022-08-19T21:49:12.595Z,6.00
2022-08-19T21:52:02.033Z,5.90
